Time;durP1;ratioP1;P1;durP2;ratioP2;P2;SDS_P1;SDS_P2;PMS_P1;PMS_P2;Temp;Humidity;BMP_temperature;BMP_pressure;BME280_temperature;BME280_humidity;BME280_pressure;Samples;Min_cycle;Max_cycle;Signal;HPM_P1;HPM_P2
2022/11/19 00:00:33;;;;;;;8.77;5.32;;;9.80;99.90;;;;;;5051158;28;20102;-76
2022/11/19 00:02:59;;;;;;;6.30;4.80;;;9.80;99.90;;;;;;5053653;28;20471;-76
2022/11/19 00:05:25;;;;;;;6.78;4.90;;;9.70;99.90;;;;;;5053636;28;20029;-79
2022/11/19 00:07:51;;;;;;;6.15;5.00;;;9.70;99.90;;;;;;5053898;28;20021;-79
2022/11/19 00:10:17;;;;;;;5.53;4.60;;;9.70;99.90;;;;;;5052707;28;20021;-79
2022/11/19 00:12:55;;;;;;;5.07;4.38;;;9.60;99.90;;;;;;5053226;28;20033;-79
2022/11/19 00:15:22;;;;;;;7.78;4.78;;;9.60;99.90;;;;;;5053459;28;20025;-79
2022/11/19 00:17:48;;;;;;;6.35;4.88;;;9.60;99.90;;;;;;5053312;28;20032;-79
2022/11/19 00:20:16;;;;;;;5.38;4.53;;;9.50;99.90;;;;;;5053539;28;20017;-79
2022/11/19 00:22:42;;;;;;;4.88;4.05;;;9.50;99.90;;;;;;5053678;28;20017;-79
2022/11/19 00:25:08;;;;;;;4.40;4.00;;;9.50;99.90;;;;;;5047281;28;20369;-79
2022/11/19 00:27:34;;;;;;;6.43;5.10;;;9.50;99.90;;;;;;5033534;28;20514;-79
2022/11/19 00:30:01;;;;;;;6.13;4.45;;;9.50;99.90;;;;;;5033681;28;20021;-79
2022/11/19 00:32:27;;;;;;;4.05;3.63;;;9.50;99.90;;;;;;5033731;28;20415;-79
2022/11/19 00:34:52;;;;;;;4.00;3.63;;;9.40;99.90;;;;;;5065362;28;20034;-79
2022/11/19 00:37:19;;;;;;;6.22;4.70;;;9.40;99.90;;;;;;5033496;28;20017;-77
2022/11/19 00:39:44;;;;;;;4.85;4.18;;;9.30;99.90;;;;;;5034043;28;20040;-79
2022/11/19 00:42:10;;;;;;;3.90;3.65;;;9.30;99.90;;;;;;5033671;28;20025;-80
2022/11/19 00:44:36;;;;;;;4.32;3.92;;;9.30;99.90;;;;;;5045240;28;20039;-77
2022/11/19 00:47:01;;;;;;;4.65;4.00;;;9.30;99.90;;;;;;5052881;28;20075;-78
2022/11/19 00:49:27;;;;;;;4.00;3.58;;;9.20;99.90;;;;;;5053091;28;20486;-77
2022/11/19 00:51:54;;;;;;;4.13;3.80;;;9.20;99.90;;;;;;5052407;28;20033;-77
2022/11/19 00:54:19;;;;;;;4.93;4.50;;;9.20;99.90;;;;;;5052122;28;20069;-78
2022/11/19 00:56:45;;;;;;;5.65;4.65;;;9.20;99.90;;;;;;5053243;28;20064;-78
2022/11/19 00:59:11;;;;;;;5.82;4.13;;;9.20;99.90;;;;;;5051963;28;20040;-77
2022/11/19 01:01:37;;;;;;;4.28;3.88;;;9.20;99.90;;;;;;5053354;28;20188;-77
2022/11/19 01:04:03;;;;;;;7.43;4.72;;;9.20;99.90;;;;;;5072903;28;20040;-77
2022/11/19 01:06:28;;;;;;;5.75;4.35;;;9.30;99.90;;;;;;5071591;28;20021;-77
2022/11/19 01:08:54;;;;;;;5.95;4.85;;;9.20;99.90;;;;;;5059635;28;20047;-77
2022/11/19 01:11:28;;;;;;;8.10;4.78;;;9.20;99.90;;;;;;5036567;28;20481;-77
2022/11/19 01:13:55;;;;;;;7.28;5.10;;;9.20;99.90;;;;;;5038531;28;20029;-79
2022/11/19 01:16:22;;;;;;;8.45;5.90;;;9.20;99.90;;;;;;5051436;28;20036;-79
2022/11/19 01:18:49;;;;;;;12.07;6.07;;;9.20;99.90;;;;;;5051273;28;20450;-77
2022/11/19 01:21:16;;;;;;;7.70;6.13;;;9.20;99.90;;;;;;5052023;28;20067;-77
2022/11/19 01:23:42;;;;;;;7.18;5.88;;;9.30;99.90;;;;;;5050820;28;20048;-77
2022/11/19 01:26:09;;;;;;;7.63;6.32;;;9.20;99.90;;;;;;5051542;28;20033;-77
2022/11/19 01:28:35;;;;;;;8.35;6.45;;;9.30;99.90;;;;;;5052218;28;20482;-77
2022/11/19 01:31:26;;;;;;;11.05;6.90;;;9.30;99.90;;;;;;5052364;28;20037;-80
2022/11/19 01:33:52;;;;;;;9.88;7.38;;;9.30;99.90;;;;;;5051720;28;20045;-79
2022/11/19 01:36:22;;;;;;;9.50;7.32;;;9.30;99.90;;;;;;5051136;28;20028;-79
2022/11/19 01:38:51;;;;;;;10.00;7.18;;;9.30;99.90;;;;;;5052206;28;20021;-79
2022/11/19 01:41:25;;;;;;;10.13;7.25;;;9.30;99.90;;;;;;5052259;28;20056;-78
2022/11/19 01:43:57;;;;;;;12.30;7.60;;;9.40;99.90;;;;;;5051705;28;20049;-79
2022/11/19 01:46:32;;;;;;;9.80;7.40;;;9.40;99.90;;;;;;5052196;28;20070;-79
2022/11/19 01:49:07;;;;;;;12.52;8.25;;;9.40;99.90;;;;;;5050986;28;20029;-79
2022/11/19 01:51:53;;;;;;;11.32;7.80;;;9.40;99.90;;;;;;5052113;28;20419;-79
2022/11/19 01:54:30;;;;;;;11.93;7.47;;;9.40;99.90;;;;;;5037536;28;20099;-79
2022/11/19 01:57:01;;;;;;;9.90;6.97;;;9.40;99.90;;;;;;5032107;28;20049;-79
2022/11/19 01:59:28;;;;;;;10.23;6.63;;;9.40;99.90;;;;;;5038300;28;20368;-79
2022/11/19 02:01:55;;;;;;;8.15;5.72;;;9.40;99.90;;;;;;5052075;28;20075;-79
2022/11/19 02:04:22;;;;;;;8.65;5.93;;;9.40;99.90;;;;;;5052746;28;20380;-79
2022/11/19 02:06:48;;;;;;;8.82;6.07;;;9.40;99.90;;;;;;5063619;28;20039;-79
2022/11/19 02:09:14;;;;;;;9.50;6.07;;;9.40;99.90;;;;;;5070730;28;20032;-77
2022/11/19 02:11:54;;;;;;;9.68;6.20;;;9.50;99.90;;;;;;5049728;28;20086;-77
2022/11/19 02:14:49;;;;;;;8.10;6.07;;;9.50;99.90;;;;;;5039773;28;20032;-79
2022/11/19 02:17:36;;;;;;;9.23;6.78;;;9.40;99.90;;;;;;5051864;28;20074;-77
2022/11/19 02:20:39;;;;;;;8.55;6.32;;;9.40;99.90;;;;;;5051849;28;20475;-79
2022/11/19 02:23:39;;;;;;;11.63;5.90;;;9.40;99.90;;;;;;5050742;28;20048;-79
2022/11/19 02:26:30;;;;;;;7.05;5.85;;;9.30;99.90;;;;;;5052168;28;20025;-79
2022/11/19 02:29:14;;;;;;;11.82;6.13;;;9.30;99.90;;;;;;5051587;28;20033;-79
2022/11/19 02:32:01;;;;;;;6.80;5.80;;;9.30;99.90;;;;;;5051569;28;20029;-79
2022/11/19 02:34:29;;;;;;;8.55;5.88;;;9.30;99.90;;;;;;5050287;28;20029;-79
2022/11/19 02:37:07;;;;;;;7.93;5.85;;;9.30;99.90;;;;;;5051828;28;20104;-79
2022/11/19 02:39:49;;;;;;;7.90;5.93;;;9.40;99.90;;;;;;5038407;28;20040;-79
2022/11/19 02:42:28;;;;;;;10.65;5.07;;;9.40;99.90;;;;;;5030671;28;20022;-77
2022/11/19 02:45:04;;;;;;;5.93;5.32;;;9.30;99.90;;;;;;5033599;28;20057;-79
2022/11/19 02:47:59;;;;;;;5.72;4.30;;;9.30;99.90;;;;;;5032654;28;20437;-77
2022/11/19 02:50:36;;;;;;;4.40;3.65;;;9.30;99.90;;;;;;5035350;28;20037;-77
2022/11/19 02:53:03;;;;;;;4.55;3.92;;;9.30;99.90;;;;;;5053664;28;20049;-77
2022/11/19 02:55:29;;;;;;;5.13;3.92;;;9.20;99.90;;;;;;5053566;28;20444;-77
2022/11/19 03:04:28;;;;;;;4.32;3.70;;;9.20;99.90;;;;;;5055505;28;20029;-77
2022/11/19 03:06:31;;;;;;;2.72;2.53;;;9.10;99.90;;;;;;5055580;28;20086;-78
2022/11/19 03:08:58;;;;;;;5.22;2.92;;;9.20;99.90;;;;;;5055861;28;20483;-79
2022/11/19 03:11:28;;;;;;;3.15;2.95;;;9.10;99.90;;;;;;5055980;28;20483;-79
2022/11/19 03:17:20;;;;;;;4.90;2.67;;;9.10;99.90;;;;;;5048825;28;20497;-77
2022/11/19 03:20:21;;;;;;;3.58;2.70;;;9.10;99.90;;;;;;5055943;28;20475;-79
2022/11/19 03:23:17;;;;;;;2.65;2.45;;;9.10;99.90;;;;;;5055626;28;20029;-77
2022/11/19 03:25:48;;;;;;;4.07;1.70;;;9.10;99.90;;;;;;5067461;28;20119;-78
2022/11/19 03:28:19;;;;;;;1.73;1.63;;;9.10;99.90;;;;;;5035346;28;20029;-79
2022/11/19 03:30:46;;;;;;;2.65;1.92;;;9.00;99.90;;;;;;5046798;28;20048;-78
2022/11/19 03:33:18;;;;;;;2.38;2.03;;;9.00;99.90;;;;;;5054762;28;20029;-79
2022/11/19 03:35:50;;;;;;;3.05;1.80;;;9.00;99.90;;;;;;5053388;28;20029;-79
2022/11/19 03:38:26;;;;;;;2.00;1.90;;;8.90;99.90;;;;;;5054626;28;20025;-79
2022/11/19 03:40:54;;;;;;;2.53;2.10;;;8.80;99.90;;;;;;5053278;28;20017;-79
2022/11/19 03:43:25;;;;;;;1.67;1.58;;;8.80;99.90;;;;;;5053277;28;20032;-79
2022/11/19 03:45:54;;;;;;;2.70;1.40;;;8.80;99.90;;;;;;5054475;28;20372;-76
2022/11/19 03:48:21;;;;;;;1.20;1.10;;;8.80;99.90;;;;;;5057654;28;20144;-78
2022/11/19 03:50:59;;;;;;;1.40;1.30;;;8.70;99.90;;;;;;5054210;28;20033;-78
2022/11/19 03:53:26;;;;;;;2.45;2.13;;;8.70;99.90;;;;;;5052810;28;20526;-79
2022/11/19 03:55:58;;;;;;;3.30;1.13;;;8.70;99.90;;;;;;5053934;28;20029;-79
2022/11/19 03:58:25;;;;;;;1.55;1.45;;;8.70;99.90;;;;;;5053375;28;20566;-78
2022/11/19 04:00:51;;;;;;;1.10;1.10;;;8.80;99.90;;;;;;5053552;28;20025;-78
2022/11/19 04:03:17;;;;;;;1.27;1.00;;;8.80;99.90;;;;;;5065246;28;20066;-78
2022/11/19 04:05:43;;;;;;;1.88;1.10;;;8.80;99.90;;;;;;5062015;28;20433;-74
2022/11/19 04:08:08;;;;;;;1.00;1.00;;;9.00;99.90;;;;;;5072215;28;20021;-74
2022/11/19 04:10:34;;;;;;;1.10;1.10;;;8.90;99.90;;;;;;5072343;28;20020;-74
2022/11/19 04:13:00;;;;;;;0.90;0.90;;;8.90;99.90;;;;;;5072201;28;20054;-74
2022/11/19 04:15:25;;;;;;;0.70;0.70;;;8.90;99.90;;;;;;5036679;28;20087;-74
2022/11/19 04:17:51;;;;;;;1.20;1.10;;;8.90;99.90;;;;;;5033390;28;20104;-74
2022/11/19 04:20:17;;;;;;;0.82;0.80;;;8.80;99.90;;;;;;5033342;28;20025;-73
2022/11/19 04:22:43;;;;;;;0.60;0.60;;;8.80;99.90;;;;;;5032174;28;20489;-74
2022/11/19 04:25:08;;;;;;;0.80;0.70;;;8.80;99.90;;;;;;5033181;28;20033;-74
2022/11/19 04:27:34;;;;;;;0.65;0.65;;;8.80;99.90;;;;;;5032139;28;20383;-74
2022/11/19 04:30:00;;;;;;;0.82;0.82;;;8.80;99.90;;;;;;5033250;28;20030;-74
2022/11/19 04:32:26;;;;;;;1.50;0.95;;;9.00;99.90;;;;;;5033386;28;20076;-74
2022/11/19 04:34:51;;;;;;;0.90;0.90;;;8.90;99.90;;;;;;5033134;28;20025;-74
2022/11/19 04:37:17;;;;;;;1.23;0.80;;;8.90;99.90;;;;;;5033250;28;20422;-74
2022/11/19 04:39:43;;;;;;;2.75;0.90;;;8.90;99.90;;;;;;5033194;28;20018;-74
2022/11/19 04:42:08;;;;;;;1.95;0.70;;;8.90;99.90;;;;;;5032909;28;20036;-74
2022/11/19 04:44:34;;;;;;;0.80;0.70;;;8.80;99.90;;;;;;5044171;28;20033;-76
2022/11/19 04:47:00;;;;;;;0.80;0.80;;;8.80;99.90;;;;;;5052751;28;20021;-75
2022/11/19 04:49:25;;;;;;;1.00;0.90;;;8.80;99.90;;;;;;5051633;28;20119;-75
2022/11/19 04:51:51;;;;;;;1.13;1.02;;;8.70;99.90;;;;;;5052741;28;20056;-76
2022/11/19 04:54:17;;;;;;;0.70;0.70;;;8.80;99.90;;;;;;5051190;28;20055;-76
2022/11/19 04:56:43;;;;;;;1.10;1.05;;;8.80;99.90;;;;;;5052468;28;20036;-75
2022/11/19 04:59:08;;;;;;;3.75;1.05;;;8.70;99.90;;;;;;5052420;28;20111;-76
2022/11/19 05:01:34;;;;;;;0.80;0.80;;;8.80;99.90;;;;;;5052728;28;20052;-76
2022/11/19 05:04:00;;;;;;;3.38;1.38;;;8.70;99.90;;;;;;5051978;28;20108;-75
2022/11/19 05:06:25;;;;;;;2.47;1.25;;;8.80;99.90;;;;;;5052569;28;20021;-75
2022/11/19 05:08:51;;;;;;;1.95;1.00;;;8.70;99.90;;;;;;5051193;28;20028;-75
2022/11/19 05:11:17;;;;;;;2.80;1.20;;;8.70;99.90;;;;;;5050232;28;20032;-75
2022/11/19 05:13:42;;;;;;;1.55;1.45;;;8.70;99.90;;;;;;5046903;28;20388;-76
2022/11/19 05:16:08;;;;;;;1.15;1.05;;;8.70;99.90;;;;;;5032033;28;20164;-76
2022/11/19 05:18:34;;;;;;;2.58;0.73;;;8.60;99.90;;;;;;5032426;28;20032;-76
2022/11/19 05:21:00;;;;;;;0.90;0.90;;;8.70;99.90;;;;;;5032300;28;20037;-76
2022/11/19 05:23:25;;;;;;;0.70;0.70;;;8.80;99.90;;;;;;5031037;28;20029;-76
2022/11/19 05:25:51;;;;;;;1.33;1.15;;;8.80;99.90;;;;;;5030955;28;20025;-76
2022/11/19 05:28:17;;;;;;;1.85;1.13;;;8.70;99.90;;;;;;5032249;28;20057;-76
2022/11/19 05:30:43;;;;;;;0.68;0.68;;;8.70;99.90;;;;;;5032164;28;20061;-75
2022/11/19 05:33:09;;;;;;;1.15;1.15;;;8.70;99.90;;;;;;5031881;28;20026;-75
2022/11/19 05:35:35;;;;;;;5.50;1.75;;;8.60;99.90;;;;;;5032004;28;20032;-76
2022/11/19 05:38:01;;;;;;;1.13;1.10;;;8.60;99.90;;;;;;5031959;28;20033;-76
2022/11/19 05:40:26;;;;;;;1.55;1.45;;;8.50;99.90;;;;;;5032037;28;20223;-76
2022/11/19 05:42:52;;;;;;;3.22;1.05;;;8.40;99.90;;;;;;5031933;28;20037;-76
2022/11/19 05:45:18;;;;;;;0.80;0.70;;;8.40;99.90;;;;;;5047634;28;20029;-76
2022/11/19 05:47:43;;;;;;;2.53;1.10;;;8.40;99.90;;;;;;5050558;28;20033;-75
2022/11/19 05:50:09;;;;;;;0.88;0.88;;;8.50;99.90;;;;;;5051545;28;20286;-76
2022/11/19 05:52:35;;;;;;;0.70;0.70;;;8.50;99.90;;;;;;5051704;28;20025;-75
2022/11/19 05:55:02;;;;;;;0.88;0.88;;;8.40;99.90;;;;;;5051553;28;20056;-76
2022/11/19 05:57:28;;;;;;;1.00;1.00;;;8.40;99.90;;;;;;5050339;28;20530;-75
2022/11/19 05:59:53;;;;;;;1.45;0.75;;;8.50;99.90;;;;;;5051462;28;20060;-76
2022/11/19 06:02:19;;;;;;;0.93;0.93;;;8.40;99.90;;;;;;5051630;28;20025;-76
2022/11/19 06:04:45;;;;;;;3.72;1.02;;;8.40;99.90;;;;;;5051473;28;20120;-74
2022/11/19 06:07:10;;;;;;;3.85;0.88;;;8.40;99.90;;;;;;5051386;28;20111;-76
2022/11/19 06:09:36;;;;;;;4.38;1.08;;;8.40;99.90;;;;;;5051561;28;20036;-76
2022/11/19 06:12:02;;;;;;;1.40;1.05;;;8.40;99.90;;;;;;5050186;28;20033;-76
2022/11/19 06:14:28;;;;;;;1.05;0.98;;;8.40;99.90;;;;;;5051174;28;20021;-76
2022/11/19 06:16:58;;;;;;;1.33;1.23;;;8.40;99.90;;;;;;5050079;28;20032;-76
2022/11/19 06:19:25;;;;;;;1.20;1.08;;;8.40;99.90;;;;;;5050154;28;20028;-76
2022/11/19 06:21:51;;;;;;;3.33;0.98;;;8.40;99.90;;;;;;5051379;28;20024;-76
2022/11/19 06:24:18;;;;;;;4.28;1.30;;;8.40;99.90;;;;;;5054089;28;20491;-76
2022/11/19 06:26:44;;;;;;;2.17;1.30;;;8.40;99.90;;;;;;5054110;28;20025;-74
2022/11/19 06:29:12;;;;;;;1.65;1.20;;;8.40;99.90;;;;;;5054157;28;20021;-74
2022/11/19 06:31:38;;;;;;;1.67;1.58;;;8.40;99.90;;;;;;5054021;28;20043;-74
2022/11/19 06:34:04;;;;;;;1.67;1.58;;;8.40;99.90;;;;;;5055247;28;20100;-73
2022/11/19 06:36:29;;;;;;;1.75;1.35;;;8.40;99.90;;;;;;5053957;28;20510;-74
2022/11/19 06:38:55;;;;;;;1.73;1.38;;;8.40;99.90;;;;;;5055087;28;20491;-74
2022/11/19 06:41:21;;;;;;;1.55;1.45;;;8.40;99.90;;;;;;5054025;28;20017;-76
2022/11/19 06:43:46;;;;;;;1.50;1.40;;;8.40;99.90;;;;;;5054814;28;20036;-76
2022/11/19 06:46:13;;;;;;;1.65;1.55;;;8.50;99.90;;;;;;5055158;28;20057;-76
2022/11/19 06:48:39;;;;;;;4.28;1.40;;;8.50;99.90;;;;;;5053665;28;20395;-75
2022/11/19 06:51:05;;;;;;;2.95;1.75;;;8.50;99.90;;;;;;5053820;28;20487;-75
2022/11/19 06:53:31;;;;;;;1.63;1.50;;;8.60;99.90;;;;;;5053487;28;20049;-73
2022/11/19 06:56:02;;;;;;;1.70;1.60;;;8.60;99.90;;;;;;5053412;28;20392;-74
2022/11/19 06:58:29;;;;;;;3.22;2.08;;;8.60;99.90;;;;;;5054428;28;20497;-75
2022/11/19 07:00:55;;;;;;;1.92;1.80;;;8.60;99.90;;;;;;5054743;28;20021;-76
2022/11/19 07:03:21;;;;;;;1.40;1.30;;;8.60;99.90;;;;;;5051138;28;20052;-76
2022/11/19 07:05:48;;;;;;;2.75;2.10;;;8.60;99.90;;;;;;5054844;28;20040;-75
2022/11/19 07:08:15;;;;;;;2.08;1.88;;;8.70;99.90;;;;;;5054801;28;20028;-73
2022/11/19 07:10:41;;;;;;;2.03;1.92;;;8.70;99.90;;;;;;5054631;28;20037;-73
2022/11/19 07:13:07;;;;;;;2.75;1.75;;;8.70;99.90;;;;;;5053249;28;20035;-73
2022/11/19 07:15:33;;;;;;;2.40;1.70;;;8.70;99.90;;;;;;5054506;28;20037;-73
2022/11/19 07:18:00;;;;;;;2.58;1.88;;;8.70;99.90;;;;;;5054504;28;20426;-73
2022/11/19 07:20:25;;;;;;;7.72;2.30;;;8.70;99.90;;;;;;5053247;28;20053;-74
2022/11/19 07:22:51;;;;;;;2.95;2.15;;;8.80;99.90;;;;;;5054375;28;20099;-74
2022/11/19 07:25:17;;;;;;;4.82;2.00;;;8.70;99.90;;;;;;5052867;28;20101;-74
2022/11/19 07:27:45;;;;;;;2.10;1.80;;;8.70;99.90;;;;;;5054406;28;20029;-74
2022/11/19 07:30:12;;;;;;;1.55;1.45;;;8.80;99.90;;;;;;5054333;28;20017;-74
2022/11/19 07:32:39;;;;;;;2.88;1.38;;;8.80;99.90;;;;;;5052987;28;20059;-74
2022/11/19 07:35:05;;;;;;;1.88;1.48;;;8.80;99.90;;;;;;5052721;28;20036;-74
2022/11/19 07:37:31;;;;;;;2.30;1.83;;;8.90;99.90;;;;;;5054170;28;20483;-74
2022/11/19 07:39:56;;;;;;;1.38;1.27;;;8.90;99.90;;;;;;5052753;28;20039;-74
2022/11/19 07:45:07;;;;;;;1.88;1.00;;;9.10;99.90;;;;;;5038355;28;20045;-74
2022/11/19 07:47:33;;;;;;;3.45;1.02;;;9.10;99.90;;;;;;5034110;28;20030;-74
2022/11/19 07:49:59;;;;;;;1.90;1.13;;;9.20;99.90;;;;;;5034007;28;20116;-74
2022/11/19 07:52:25;;;;;;;1.00;0.90;;;9.30;99.90;;;;;;5032403;28;20112;-74
2022/11/19 07:54:51;;;;;;;1.30;1.10;;;9.40;99.90;;;;;;5032418;28;20080;-75
2022/11/19 07:57:16;;;;;;;0.77;0.77;;;9.40;99.90;;;;;;5032460;28;20029;-74
2022/11/19 07:59:42;;;;;;;3.78;0.55;;;9.50;99.90;;;;;;5032624;28;20025;-74
2022/11/19 08:02:11;;;;;;;1.20;1.10;;;9.60;99.90;;;;;;5033848;28;20025;-74
2022/11/19 08:04:37;;;;;;;1.13;1.02;;;9.70;99.90;;;;;;5032458;28;20124;-74
2022/11/19 08:07:03;;;;;;;1.00;0.90;;;9.80;99.90;;;;;;5033664;28;20100;-74
2022/11/19 08:09:28;;;;;;;3.08;0.80;;;9.80;99.90;;;;;;5032382;28;20033;-74
2022/11/19 08:11:54;;;;;;;0.70;0.70;;;9.90;99.90;;;;;;5039115;28;20508;-74
2022/11/19 08:14:20;;;;;;;0.60;0.60;;;10.00;99.90;;;;;;5053241;28;20029;-74
2022/11/19 08:19:29;;;;;;;3.70;0.65;;;10.10;99.90;;;;;;5053360;28;20064;-74
2022/11/19 08:21:55;;;;;;;4.10;0.68;;;10.10;99.90;;;;;;5053326;28;20021;-74
2022/11/19 08:24:21;;;;;;;1.48;0.77;;;10.20;99.90;;;;;;5052941;28;20087;-73
2022/11/19 08:26:47;;;;;;;1.00;0.70;;;10.20;99.90;;;;;;5053372;28;20140;-74
2022/11/19 08:29:15;;;;;;;1.15;0.77;;;10.30;99.90;;;;;;5053296;28;20029;-74
2022/11/19 08:31:42;;;;;;;0.65;0.65;;;10.30;99.90;;;;;;5053124;28;20100;-73
2022/11/19 08:34:07;;;;;;;0.88;0.77;;;10.40;99.90;;;;;;5051678;28;20029;-74
2022/11/19 08:36:33;;;;;;;1.40;1.30;;;10.40;99.90;;;;;;5050386;28;20390;-74
2022/11/19 08:38:59;;;;;;;5.80;1.50;;;10.40;99.90;;;;;;5051994;28;20021;-73
2022/11/19 08:44:11;;;;;;;1.25;1.05;;;10.50;99.90;;;;;;5053080;28;20033;-74
2022/11/19 08:46:38;;;;;;;2.72;1.38;;;10.50;99.90;;;;;;5052696;28;20096;-74
2022/11/19 08:49:04;;;;;;;2.25;1.30;;;10.70;99.90;;;;;;5051058;28;20116;-75
2022/11/19 08:51:30;;;;;;;1.88;1.77;;;10.70;99.90;;;;;;5051076;28;20486;-74
2022/11/19 08:53:56;;;;;;;2.53;2.05;;;10.80;99.90;;;;;;5051123;28;20065;-74
2022/11/19 08:56:22;;;;;;;6.10;2.83;;;10.80;99.90;;;;;;5052520;28;20066;-73
2022/11/19 08:58:48;;;;;;;5.65;3.00;;;10.70;99.90;;;;;;5052854;28;20029;-74
2022/11/19 09:01:16;;;;;;;5.65;3.15;;;10.70;99.90;;;;;;5052210;28;20361;-74
2022/11/19 09:03:42;;;;;;;4.07;3.38;;;10.70;99.90;;;;;;5052212;28;20028;-74
2022/11/19 09:06:08;;;;;;;3.72;3.25;;;10.70;99.90;;;;;;5052023;28;20032;-73
2022/11/19 09:08:34;;;;;;;4.03;3.30;;;10.80;99.90;;;;;;5050505;28;20044;-74
2022/11/19 09:11:13;;;;;;;6.05;3.03;;;10.80;99.90;;;;;;5050249;28;20163;-74
2022/11/19 09:13:39;;;;;;;3.63;3.00;;;10.70;99.90;;;;;;5048648;28;20021;-74
2022/11/19 09:16:06;;;;;;;3.22;2.58;;;10.70;99.90;;;;;;5045653;28;20451;-74
2022/11/19 09:18:32;;;;;;;3.95;3.30;;;10.70;99.90;;;;;;5046640;28;20086;-74
2022/11/19 09:20:58;;;;;;;6.55;2.63;;;10.80;99.90;;;;;;5046299;28;20082;-74
2022/11/19 09:23:26;;;;;;;6.15;3.20;;;10.80;99.90;;;;;;5046812;28;20025;-74
2022/11/19 09:26:00;;;;;;;5.70;3.20;;;10.80;99.90;;;;;;5046888;28;20426;-74
2022/11/19 09:28:27;;;;;;;4.40;2.63;;;10.90;99.90;;;;;;5047037;28;20021;-74
2022/11/19 09:31:15;;;;;;;5.80;4.20;;;10.80;99.90;;;;;;5048155;28;20025;-74
2022/11/19 09:33:44;;;;;;;4.65;4.03;;;10.90;99.90;;;;;;5049634;28;20052;-73
2022/11/19 09:36:11;;;;;;;5.03;4.28;;;10.90;99.90;;;;;;5047278;28;20112;-74
2022/11/19 09:38:39;;;;;;;5.22;3.63;;;10.90;99.90;;;;;;5050356;28;20053;-77
2022/11/19 09:41:16;;;;;;;5.90;4.13;;;10.90;99.90;;;;;;5049233;28;20029;-77
2022/11/19 09:43:42;;;;;;;3.33;3.03;;;11.00;99.90;;;;;;5052182;28;20115;-77
2022/11/19 09:46:20;;;;;;;5.50;3.28;;;11.00;99.90;;;;;;5052146;28;20107;-77
2022/11/19 09:48:48;;;;;;;3.03;2.80;;;11.10;99.90;;;;;;5051256;28;20025;-77
2022/11/19 09:51:19;;;;;;;5.45;2.58;;;11.20;99.90;;;;;;5049849;28;20509;-78
2022/11/19 09:53:51;;;;;;;2.50;2.30;;;11.20;99.90;;;;;;5051729;28;20041;-77
2022/11/19 09:56:28;;;;;;;1.98;1.73;;;11.30;99.90;;;;;;5044142;28;20339;-77
2022/11/19 09:58:56;;;;;;;3.67;2.20;;;11.30;99.90;;;;;;5049577;28;20598;-78
2022/11/19 10:01:22;;;;;;;5.47;3.13;;;11.40;99.90;;;;;;5052318;28;20048;-78
2022/11/19 10:03:50;;;;;;;4.53;2.70;;;11.50;99.90;;;;;;5053054;28;20075;-77
2022/11/19 10:06:48;;;;;;;8.25;2.33;;;11.50;99.90;;;;;;5051658;28;20429;-78
2022/11/19 10:09:32;;;;;;;4.45;2.10;;;11.50;99.90;;;;;;5047873;28;20037;-78
2022/11/19 10:12:04;;;;;;;8.95;2.47;;;11.60;99.90;;;;;;5053020;28;20024;-77
2022/11/19 10:14:54;;;;;;;7.15;2.90;;;11.60;99.90;;;;;;5052876;28;20482;-78
2022/11/19 10:17:28;;;;;;;2.85;2.10;;;11.60;99.90;;;;;;5052953;28;20021;-77
2022/11/19 10:20:06;;;;;;;2.50;2.30;;;11.60;99.90;;;;;;5051644;28;20086;-77
2022/11/19 10:22:44;;;;;;;2.88;1.80;;;11.60;99.90;;;;;;5052606;28;20060;-77
2022/11/19 10:25:10;;;;;;;4.63;2.45;;;11.60;99.90;;;;;;5052822;28;20491;-78
2022/11/19 10:27:54;;;;;;;5.68;2.10;;;11.70;99.90;;;;;;5051537;28;20075;-77
2022/11/19 10:30:25;;;;;;;2.80;2.47;;;11.80;99.90;;;;;;5052892;28;20056;-78
2022/11/19 10:33:04;;;;;;;7.72;3.28;;;11.70;99.90;;;;;;5051152;28;20032;-76
2022/11/19 10:35:53;;;;;;;2.80;2.53;;;11.80;99.90;;;;;;5052579;28;20027;-76
2022/11/19 10:38:28;;;;;;;2.63;2.42;;;11.90;99.90;;;;;;5052134;28;20033;-75
2022/11/19 10:41:14;;;;;;;5.43;2.75;;;12.00;99.90;;;;;;5052478;28;20036;-76
2022/11/19 10:43:55;;;;;;;6.93;2.90;;;12.10;99.90;;;;;;5051235;28;20067;-76
2022/11/19 10:46:27;;;;;;;4.22;2.83;;;12.10;99.90;;;;;;5052612;28;20021;-77
2022/11/19 10:49:00;;;;;;;2.40;2.20;;;12.10;99.90;;;;;;5052556;28;20100;-77
2022/11/19 10:51:32;;;;;;;4.75;2.13;;;12.10;99.90;;;;;;5046742;28;20049;-77
2022/11/19 10:54:01;;;;;;;2.85;2.40;;;12.20;99.90;;;;;;5032600;28;20470;-77
2022/11/19 10:56:41;;;;;;;2.30;2.10;;;12.20;99.90;;;;;;5038063;28;20025;-77
2022/11/19 10:59:18;;;;;;;2.63;2.40;;;12.30;99.90;;;;;;5030634;28;20108;-77
2022/11/19 11:01:47;;;;;;;3.22;2.30;;;12.30;99.90;;;;;;5032110;28;20029;-78
2022/11/19 11:04:18;;;;;;;2.72;2.00;;;12.40;99.90;;;;;;5030432;28;20112;-74
2022/11/19 11:07:04;;;;;;;3.42;1.90;;;12.40;99.90;;;;;;5028869;28;20036;-74
2022/11/19 11:09:43;;;;;;;2.50;2.30;;;12.50;99.90;;;;;;5029827;28;20147;-74
2022/11/19 11:15:06;;;;;;;3.10;2.72;;;12.70;99.90;;;;;;5049982;28;20040;-74
2022/11/19 11:17:35;;;;;;;5.28;3.17;;;12.80;99.90;;;;;;5052433;28;20032;-74
2022/11/19 11:20:27;;;;;;;2.88;2.42;;;12.80;99.90;;;;;;5052690;28;20075;-74
2022/11/19 11:23:11;;;;;;;1.83;1.73;;;12.90;99.90;;;;;;5052140;28;20079;-74
2022/11/19 11:25:49;;;;;;;3.78;2.25;;;12.90;99.90;;;;;;5047719;28;20047;-74
2022/11/19 11:28:18;;;;;;;3.20;2.90;;;12.90;99.90;;;;;;5053859;28;20064;-74
2022/11/19 11:31:05;;;;;;;3.53;2.97;;;12.90;99.90;;;;;;5054164;28;20029;-74
2022/11/19 11:33:35;;;;;;;6.35;2.67;;;12.90;99.90;;;;;;5054089;28;20100;-74
2022/11/19 11:36:03;;;;;;;2.90;2.70;;;12.90;99.90;;;;;;5051019;28;20033;-74
2022/11/19 11:38:29;;;;;;;2.45;2.25;;;12.90;99.90;;;;;;5052198;28;20049;-74
2022/11/19 11:41:07;;;;;;;4.43;3.05;;;12.80;99.90;;;;;;5050822;28;20476;-74
2022/11/19 11:43:35;;;;;;;7.55;3.20;;;12.90;99.90;;;;;;5051792;28;20510;-74
2022/11/19 11:46:05;;;;;;;2.92;2.53;;;12.90;99.90;;;;;;5051911;28;20021;-74
2022/11/19 11:48:47;;;;;;;6.53;2.67;;;12.80;99.90;;;;;;5051152;28;20025;-74
2022/11/19 11:51:32;;;;;;;;;;;12.80;99.90;;;;;;5053766;28;20499;-74
2022/11/19 11:54:18;;;;;;;6.82;2.58;;;12.80;99.90;;;;;;5051705;28;19924;-74
2022/11/19 11:56:45;;;;;;;4.28;1.90;;;12.80;99.90;;;;;;5036528;28;20106;-77
2022/11/19 11:59:29;;;;;;;2.60;2.40;;;12.80;99.90;;;;;;5032567;28;20506;-77
2022/11/19 12:02:06;;;;;;;2.63;2.08;;;12.80;99.90;;;;;;5032343;28;20101;-77
2022/11/19 12:04:34;;;;;;;2.65;2.28;;;12.90;99.90;;;;;;5032700;28;20032;-76
2022/11/19 12:07:28;;;;;;;1.90;1.70;;;12.90;99.90;;;;;;5032880;28;20021;-76
2022/11/19 12:10:41;;;;;;;2.47;1.77;;;12.90;99.90;;;;;;5032427;28;20108;-76
2022/11/19 12:13:31;;;;;;;4.32;2.17;;;12.90;99.90;;;;;;5030641;28;20096;-76
2022/11/19 12:16:03;;;;;;;3.13;2.17;;;12.90;99.90;;;;;;5032282;28;20025;-76
2022/11/19 12:18:53;;;;;;;2.70;2.17;;;12.90;99.90;;;;;;5032088;28;20026;-76
2022/11/19 12:21:29;;;;;;;4.90;2.28;;;13.00;99.90;;;;;;5030087;28;20479;-76
2022/11/19 12:24:33;;;;;;;4.35;2.35;;;13.00;99.90;;;;;;5032758;28;20029;-76
2022/11/19 12:27:30;;;;;;;5.85;2.40;;;13.00;99.90;;;;;;5031043;28;20064;-76
2022/11/19 12:30:09;;;;;;;3.40;3.08;;;13.00;99.90;;;;;;5034117;28;20022;-76
2022/11/19 12:32:38;;;;;;;3.92;2.53;;;13.10;99.90;;;;;;5033271;28;20024;-76
2022/11/19 12:35:23;;;;;;;5.90;4.00;;;13.10;99.90;;;;;;5034448;28;20049;-76
2022/11/19 12:38:25;;;;;;;4.90;3.65;;;13.10;99.90;;;;;;5033304;28;20029;-76
2022/11/19 12:40:56;;;;;;;7.32;4.32;;;13.10;99.90;;;;;;5034556;28;20048;-76
2022/11/19 12:43:49;;;;;;;5.72;3.33;;;13.20;99.90;;;;;;5035113;28;20109;-76
2022/11/19 12:46:40;;;;;;;3.75;3.33;;;13.20;99.90;;;;;;5036127;28;20079;-76
2022/11/19 12:49:22;;;;;;;4.93;3.90;;;13.20;99.90;;;;;;5031077;28;20048;-74
2022/11/19 12:52:20;;;;;;;7.45;4.25;;;13.20;99.90;;;;;;5031151;28;20392;-74
2022/11/19 12:55:00;;;;;;;3.92;3.40;;;13.20;99.90;;;;;;5029522;28;20207;-74
2022/11/19 12:57:35;;;;;;;4.90;4.40;;;13.20;99.90;;;;;;5045265;28;20029;-74
2022/11/19 13:00:20;;;;;;;4.95;4.20;;;13.20;99.90;;;;;;5050771;28;20434;-74
2022/11/19 13:03:04;;;;;;;7.35;4.25;;;13.20;99.90;;;;;;5050702;28;20032;-74
2022/11/19 13:05:51;;;;;;;3.88;3.47;;;13.20;99.90;;;;;;5051352;28;20036;-74
2022/11/19 13:08:19;;;;;;;5.80;4.28;;;13.30;99.90;;;;;;5051230;28;20021;-74
2022/11/19 13:10:55;;;;;;;6.25;4.55;;;13.30;99.90;;;;;;5052220;28;20032;-74
2022/11/19 13:13:27;;;;;;;9.45;4.80;;;13.30;99.90;;;;;;5052204;28;20514;-74
2022/11/19 13:16:03;;;;;;;5.25;4.45;;;13.30;99.90;;;;;;5052247;28;20043;-74
2022/11/19 13:18:33;;;;;;;6.55;4.70;;;13.30;99.90;;;;;;5052275;28;20025;-74
2022/11/19 13:21:12;;;;;;;8.05;5.03;;;13.20;99.90;;;;;;5051002;28;20578;-74
2022/11/19 13:23:46;;;;;;;6.60;4.70;;;13.20;99.90;;;;;;5052175;28;20426;-74
2022/11/19 13:26:14;;;;;;;9.68;5.60;;;13.20;99.90;;;;;;5052224;28;20433;-74
2022/11/19 13:28:49;;;;;;;7.55;5.53;;;13.20;99.90;;;;;;5050726;28;20036;-74
2022/11/19 13:31:42;;;;;;;8.68;5.40;;;13.20;99.90;;;;;;5050753;28;20024;-74
2022/11/19 13:34:17;;;;;;;8.32;6.30;;;13.10;99.90;;;;;;5048982;28;20464;-74